Friday, November 24, 2017, 8:17 AM EST
Back to Local

KWVL, Waterville, Waterville Robert Lafleur Airport

Location: Waterville, ME, United States Lat: 44.533
Local Time: 8:17 AM EST (13:17 GMT) Lon: -69.683
Time Zone: US/Eastern Elev: 334 ft

Show me the last for .
Show Decoded

2017-11-24 07:56 METAR KWVL 241256Z AUTO 21004KT 10SM BKN070 M02/M06 A2990 RMK AO2 SLP156
                 T10171056 FZRANO =
2017-11-24 06:56 METAR KWVL 241156Z AUTO VRB03KT 10SM OVC075 M02/M06 A2989 RMK AO2 SLP154
                 T10221056 11011 21028 53011 FZRANO =
2017-11-24 05:56 METAR KWVL 241056Z AUTO 19003KT 10SM OVC080 M02/M06 A2988 RMK AO2 SLP149
                 T10221056 FZRANO =
2017-11-24 04:56 METAR KWVL 240956Z AUTO 00000KT 10SM OVC090 M02/M06 A2987 RMK AO2 SLP147
                 T10221061 FZRANO =
2017-11-24 03:56 METAR KWVL 240856Z AUTO 19003KT 10SM OVC090 M02/M06 A2986 RMK AO2 SLP143
                 T10171061 55000 FZRANO =
2017-11-24 02:56 METAR KWVL 240756Z AUTO VRB05KT 10SM OVC100 M02/M07 A2985 RMK AO2 SLP141
                 T10171067 FZRANO =
2017-11-24 01:56 METAR KWVL 240656Z AUTO 18003KT 10SM OVC090 M02/M07 A2986 RMK AO2 SLP144
                 T10171067 FZRANO =
2017-11-24 00:56 METAR KWVL 240556Z AUTO 00000KT 10SM OVC100 M01/M07 A2986 RMK AO2 SLP142
                 T10111072 11011 21022 56005 FZRANO =
2017-11-23 23:56 METAR KWVL 240456Z AUTO 22003KT 10SM OVC100 M02/M07 A2986 RMK AO2 SLP144
                 T10171072 400221033 FZRANO =
2017-11-23 22:56 METAR KWVL 240356Z AUTO 22004KT 10SM OVC100 M02/M07 A2986 RMK AO2 SLP145
                 T10171067 FZRANO =
2017-11-23 21:56 METAR KWVL 240256Z AUTO 22004KT 10SM OVC090 M01/M07 A2987 RMK AO2 SLP148
                 T10111072 56008 FZRANO =
2017-11-23 20:56 METAR KWVL 240156Z AUTO 00000KT 10SM OVC095 M01/M06 A2988 RMK AO2 SLP151
                 T10111061 FZRANO =
2017-11-23 19:56 METAR KWVL 240056Z AUTO 00000KT 10SM OVC100 M01/M07 A2988 RMK AO2 SLP151
                 T10111072 FZRANO =
2017-11-23 18:56 METAR KWVL 232356Z AUTO 30003KT 10SM OVC100 M01/M08 A2990 RMK AO2 SLP155
                 T10111078 10017 21017 58001 FZRANO =
2017-11-23 17:56 METAR KWVL 232256Z AUTO 30004KT 10SM BKN110 M01/M08 A2990 RMK AO2 SLP158
                 T10111078 FZRANO =
2017-11-23 16:56 METAR KWVL 232156Z AUTO 23003KT 10SM OVC110 M01/M08 A2990 RMK AO2 SLP158
                 T10061078 FZRANO =
2017-11-23 15:56 METAR KWVL 232056Z AUTO 32008KT 10SM OVC120 00/M08 A2990 RMK AO2 SLP157
                 T00001083 53006 FZRANO =
2017-11-23 14:56 METAR KWVL 231956Z AUTO 30005KT 10SM CLR 01/M09 A2989 RMK AO2 SLP152 T00061089
                 FZRANO =
2017-11-23 13:56 METAR KWVL 231856Z AUTO 29006KT 10SM CLR 01/M09 A2988 RMK AO2 SLP148 T00111094
                 FZRANO =
2017-11-23 12:56 METAR KWVL 231756Z AUTO 29007KT 10SM CLR 02/M09 A2988 RMK AO2 SLP150 T00171094
                 10017 21033 56010 FZRANO =
2017-11-23 11:56 METAR KWVL 231656Z AUTO 30007KT 10SM CLR 01/M09 A2989 RMK AO2 SLP153 T00061094
                 FZRANO =
2017-11-23 10:56 METAR KWVL 231556Z AUTO 27008KT 10SM CLR 01/M09 A2990 RMK AO2 SLP156 T00061089
                 FZRANO =
2017-11-23 09:56 METAR KWVL 231456Z AUTO 32011KT 10SM CLR M01/M08 A2991 RMK AO2 SLP160 T10061083
                 50009 FZRANO =
2017-11-23 08:56 METAR KWVL 231356Z AUTO 29004KT 10SM CLR M01/M08 A2992 RMK AO2 SLP165 T10111078
                 FZRANO =

Support USWX by starting your Amazon purchase here.